createdAt,value
2018-11-22T00:10:00.640Z,607.60
2018-11-22T00:20:19.551Z,438.00
2018-11-22T00:30:38.247Z,344.30
2018-11-22T00:40:57.141Z,341.43
2018-11-22T00:51:15.865Z,319.13
2018-11-22T01:01:34.633Z,495.67
2018-11-22T01:11:53.292Z,247.57
2018-11-22T01:22:11.962Z,839.87
2018-11-22T01:32:30.786Z,248.77
2018-11-22T01:42:49.508Z,264.17
2018-11-22T01:53:08.198Z,299.67
2018-11-22T02:03:27.138Z,435.03
2018-11-22T02:13:45.872Z,339.20
2018-11-22T02:24:05.584Z,488.47
2018-11-22T02:34:24.391Z,316.63
2018-11-22T02:44:44.039Z,250.77
2018-11-22T02:55:03.519Z,257.17
2018-11-22T03:05:22.157Z,295.97
2018-11-22T03:15:40.997Z,277.37
2018-11-22T03:25:59.765Z,238.90
2018-11-22T03:36:18.532Z,215.50
2018-11-22T03:46:37.927Z,203.60
2018-11-22T03:56:56.744Z,261.63
2018-11-22T04:07:15.666Z,200.90
2018-11-22T04:17:34.272Z,234.47
2018-11-22T04:27:53.070Z,232.90
2018-11-22T04:38:12.071Z,144.70
2018-11-22T04:48:30.608Z,139.20
2018-11-22T04:58:49.703Z,153.53
2018-11-22T05:09:09.604Z,154.67
2018-11-22T05:19:28.324Z,156.77
2018-11-22T05:29:47.142Z,165.27
2018-11-22T05:40:08.682Z,141.90
2018-11-22T05:50:29.551Z,109.07
2018-11-22T06:00:48.261Z,95.27
2018-11-22T06:11:07.047Z,142.77
2018-11-22T06:21:28.425Z,158.33
2018-11-22T06:31:46.800Z,174.70
2018-11-22T06:42:05.388Z,172.77
2018-11-22T06:52:24.775Z,198.63
2018-11-22T07:02:43.730Z,168.53
2018-11-22T07:13:02.605Z,163.13
2018-11-22T07:23:21.258Z,210.73
2018-11-22T07:33:40.120Z,154.33
2018-11-22T07:43:58.687Z,129.37
2018-11-22T07:54:17.456Z,193.50
2018-11-22T08:04:36.092Z,127.70
2018-11-22T08:14:54.958Z,108.17
2018-11-22T08:25:15.168Z,86.10
2018-11-22T08:35:33.935Z,90.83
2018-11-22T08:45:52.618Z,65.93
2018-11-22T08:56:11.355Z,60.90
2018-11-22T09:06:30.267Z,66.73
2018-11-22T09:16:50.690Z,65.07
2018-11-22T09:27:15.401Z,60.80
2018-11-22T09:37:37.927Z,57.83
2018-11-22T09:47:58.673Z,62.83
2018-11-22T09:58:18.706Z,71.23
2018-11-22T10:08:44.088Z,76.43
2018-11-22T10:19:04.202Z,75.07
2018-11-22T10:29:24.551Z,65.07
2018-11-22T10:39:43.919Z,69.07
2018-11-22T10:50:04.838Z,57.83
2018-11-22T11:00:43.278Z,60.03
2018-11-22T11:11:03.845Z,84.90
2018-11-22T11:21:23.533Z,68.73
2018-11-22T11:31:43.450Z,80.70
2018-11-22T11:42:02.787Z,91.37
2018-11-22T11:52:23.204Z,100.47
2018-11-22T12:02:44.153Z,92.20
2018-11-22T12:13:05.009Z,90.40
2018-11-22T12:23:25.948Z,111.50
2018-11-22T12:34:05.442Z,117.53
2018-11-22T12:44:26.215Z,112.73
2018-11-22T12:54:46.453Z,98.63
2018-11-22T13:05:07.751Z,98.73
2018-11-22T13:15:28.042Z,128.03
2018-11-22T13:25:48.093Z,105.97
2018-11-22T13:36:08.478Z,165.20
2018-11-22T13:46:28.013Z,140.10
2018-11-22T13:56:48.006Z,129.20
2018-11-22T14:07:07.598Z,115.07
2018-11-22T14:17:27.075Z,132.03
2018-11-22T14:27:47.822Z,176.60
2018-11-22T14:38:06.879Z,199.33
2018-11-22T14:48:26.071Z,126.40
2018-11-22T14:58:45.859Z,125.77
2018-11-22T15:09:07.386Z,315.53
2018-11-22T15:19:27.141Z,384.33
2018-11-22T15:29:46.628Z,182.47
2018-11-22T15:40:08.354Z,258.60
2018-11-22T15:50:28.395Z,337.63
2018-11-22T16:00:48.457Z,260.67
2018-11-22T16:11:10.899Z,444.67
2018-11-22T16:21:28.294Z,290.40
2018-11-22T16:31:48.762Z,566.13
2018-11-22T16:42:09.216Z,558.57
2018-11-22T16:52:30.791Z,637.33
2018-11-22T17:02:52.889Z,383.17
2018-11-22T17:13:15.427Z,178.83
2018-11-22T17:23:37.823Z,347.63
2018-11-22T17:33:59.561Z,275.90
2018-11-22T17:44:21.709Z,222.13
2018-11-22T17:54:43.850Z,234.10
2018-11-22T18:05:05.696Z,192.17
2018-11-22T18:15:29.980Z,215.00
2018-11-22T18:25:53.590Z,181.03
2018-11-22T18:36:17.141Z,512.20
2018-11-22T18:46:39.827Z,320.67
2018-11-22T18:57:03.196Z,306.77
2018-11-22T19:07:23.494Z,410.03
2018-11-22T19:17:42.481Z,721.53
2018-11-22T19:28:02.206Z,319.23
2018-11-22T19:38:21.102Z,420.27
2018-11-22T19:48:39.596Z,129.90
2018-11-22T19:58:58.514Z,135.10
2018-11-22T20:09:25.033Z,250.73
2018-11-22T20:19:43.983Z,244.70
2018-11-22T20:30:03.452Z,114.40
2018-11-22T20:40:23.815Z,126.70
2018-11-22T20:50:42.487Z,115.93
2018-11-22T21:01:01.232Z,103.33
2018-11-22T21:11:19.966Z,110.10
2018-11-22T21:21:38.513Z,106.37
2018-11-22T21:31:57.499Z,71.97
2018-11-22T21:42:36.568Z,83.87
2018-11-22T22:04:12.409Z,84.40
2018-11-22T22:25:26.596Z,66.23
2018-11-22T23:08:54.409Z,58.97
2018-11-22T23:19:03.006Z,60.80
2018-11-22T23:29:21.615Z,52.73
2018-11-22T23:39:40.260Z,60.07
2018-11-22T23:49:59.047Z,54.53
